Atco, New Jersey
Current Conditions -  °F | °C
As of 12:54 PM on Tuesday 21 Oct 2014 (Local Time) from KVAY Reporting Station
Scattered Clouds Scattered Clouds  
Wind Chill: 18°   Ceiling: Unl
Heat Index: 18°   Visibility: 10mi
Dew Point: 11°   Wind: 0mph
Humidity: 61%   Direction: NA
Pressure: 29.84"   Gusts: NA
Location:  39.77°N, 74.89°W
Report Text: KVAY 211654Z AUTO 00000KT 10SM SCT110 18/11 A2984 RMK AO2 LTG DSNT E SLP103 T01830106
Loading
Personal Weather Stations






























Interactive Weather Map
Tropical Storm Tracking
New forecast layout! Learn more

10-Day Weather Forecast

Advertisements
Track Severe Weather on mobile